createdAt,value
2022-10-14T00:00:23.937Z,14.07
2022-10-14T00:02:50.322Z,13.32
2022-10-14T00:05:16.759Z,12.77
2022-10-14T00:07:44.499Z,12.05
2022-10-14T00:10:14.020Z,13.23
2022-10-14T00:12:40.398Z,12.23
2022-10-14T00:15:07.301Z,13.65
2022-10-14T00:17:33.666Z,13.55
2022-10-14T00:20:00.135Z,12.40
2022-10-14T00:22:26.503Z,13.15
2022-10-14T00:24:53.025Z,13.32
2022-10-14T00:27:21.758Z,13.63
2022-10-14T00:29:48.291Z,13.30
2022-10-14T00:32:14.756Z,12.63
2022-10-14T00:34:41.190Z,13.60
2022-10-14T00:37:07.584Z,12.77
2022-10-14T00:39:33.959Z,14.93
2022-10-14T00:42:00.398Z,13.63
2022-10-14T00:44:26.740Z,15.82
2022-10-14T00:46:53.379Z,13.45
2022-10-14T00:49:27.562Z,13.93
2022-10-14T00:51:56.941Z,14.05
2022-10-14T00:54:25.466Z,13.38
2022-10-14T00:56:52.256Z,14.55
2022-10-14T00:59:18.773Z,14.20
2022-10-14T01:01:45.191Z,15.00
2022-10-14T01:04:11.515Z,14.02
2022-10-14T01:06:56.543Z,14.60
2022-10-14T01:09:29.042Z,14.80
2022-10-14T01:12:27.398Z,14.80
2022-10-14T01:15:10.184Z,15.43
2022-10-14T01:17:37.013Z,14.40
2022-10-14T01:20:14.446Z,17.35
2022-10-14T01:22:50.964Z,14.85
2022-10-14T01:25:27.059Z,15.52
2022-10-14T01:28:15.211Z,14.85
2022-10-14T01:30:47.161Z,13.48
2022-10-14T01:33:15.759Z,14.68
2022-10-14T01:35:42.060Z,15.77
2022-10-14T01:38:13.127Z,14.95
2022-10-14T01:40:42.495Z,14.40
2022-10-14T01:43:11.594Z,15.77
2022-10-14T01:45:39.690Z,15.70
2022-10-14T01:48:07.086Z,16.23
2022-10-14T01:50:35.379Z,15.80
2022-10-14T01:53:04.065Z,15.07
2022-10-14T01:55:31.829Z,16.77
2022-10-14T01:57:58.587Z,16.48
2022-10-14T02:00:24.993Z,16.83
2022-10-14T02:02:51.323Z,17.23
2022-10-14T02:05:21.697Z,17.52
2022-10-14T02:07:49.805Z,18.20
2022-10-14T02:10:18.903Z,18.05
2022-10-14T02:12:59.070Z,18.17
2022-10-14T02:15:28.147Z,19.33
2022-10-14T02:17:57.631Z,18.60
2022-10-14T02:20:35.283Z,18.17
2022-10-14T02:23:16.914Z,17.58
2022-10-14T02:25:45.222Z,18.30
2022-10-14T02:28:13.858Z,19.13
2022-10-14T02:30:42.622Z,19.20
2022-10-14T02:33:09.487Z,17.98
2022-10-14T02:35:36.967Z,20.08
2022-10-14T02:38:04.645Z,19.83
2022-10-14T02:40:36.966Z,20.20
2022-10-14T02:43:03.478Z,20.13
2022-10-14T02:45:29.895Z,18.90
2022-10-14T02:47:56.264Z,20.80
2022-10-14T02:50:22.639Z,20.55
2022-10-14T02:52:49.186Z,21.15
2022-10-14T02:55:15.582Z,21.10
2022-10-14T02:57:42.095Z,22.05
2022-10-14T03:00:08.833Z,20.55
2022-10-14T03:02:35.227Z,19.00
2022-10-14T03:05:01.611Z,20.15
2022-10-14T03:07:27.953Z,20.90
2022-10-14T03:09:54.325Z,19.25
2022-10-14T03:12:20.912Z,20.65
2022-10-14T03:14:50.499Z,20.23
2022-10-14T03:17:16.986Z,21.33
2022-10-14T03:19:43.328Z,19.88
2022-10-14T03:22:09.675Z,19.08
2022-10-14T03:24:36.143Z,19.23
2022-10-14T03:27:02.609Z,20.67
2022-10-14T03:29:28.972Z,19.77
2022-10-14T03:31:55.318Z,20.38
2022-10-14T03:34:21.656Z,19.45
2022-10-14T03:36:48.079Z,18.58
2022-10-14T03:39:14.517Z,19.98
2022-10-14T03:41:40.873Z,19.55
2022-10-14T03:44:07.357Z,20.05
2022-10-14T03:46:33.761Z,20.85
2022-10-14T03:49:00.093Z,20.40
2022-10-14T03:51:26.511Z,18.90
2022-10-14T03:53:52.867Z,20.23
2022-10-14T03:56:19.271Z,19.35
2022-10-14T03:58:45.627Z,19.65
2022-10-14T04:01:11.953Z,19.60
2022-10-14T04:03:38.878Z,20.58
2022-10-14T04:06:05.344Z,20.55
2022-10-14T04:08:31.700Z,19.48
2022-10-14T04:10:58.673Z,19.50
2022-10-14T04:13:27.088Z,20.52
2022-10-14T04:15:53.531Z,19.42
2022-10-14T04:18:19.902Z,19.92
2022-10-14T04:20:46.298Z,19.98
2022-10-14T04:23:12.678Z,19.52
2022-10-14T04:25:39.388Z,19.50
2022-10-14T04:28:06.100Z,20.10
2022-10-14T04:30:32.437Z,20.90
2022-10-14T04:32:58.790Z,20.42
2022-10-14T04:35:25.143Z,18.30
2022-10-14T04:37:51.480Z,18.50
2022-10-14T04:40:20.496Z,19.75
2022-10-14T04:42:46.944Z,18.20
2022-10-14T04:45:13.314Z,19.40
2022-10-14T04:47:41.262Z,19.42
2022-10-14T04:50:09.347Z,19.15
2022-10-14T04:52:35.850Z,16.17
2022-10-14T04:55:03.522Z,18.60
2022-10-14T04:57:29.862Z,16.02
2022-10-14T04:59:56.208Z,15.90
2022-10-14T05:02:22.821Z,15.88
2022-10-14T05:04:49.437Z,16.25
2022-10-14T05:07:16.460Z,15.57
2022-10-14T05:09:47.646Z,15.80
2022-10-14T05:12:15.474Z,14.82
2022-10-14T05:14:41.911Z,14.63
2022-10-14T05:17:09.602Z,15.35
2022-10-14T05:19:35.989Z,13.70
2022-10-14T05:22:02.317Z,15.05
2022-10-14T05:24:28.720Z,14.15
2022-10-14T05:26:55.069Z,13.43
2022-10-14T05:29:21.575Z,12.70
2022-10-14T05:31:47.924Z,12.23
2022-10-14T05:34:14.244Z,12.23
2022-10-14T05:36:40.626Z,12.23
2022-10-14T05:39:07.599Z,12.48
2022-10-14T05:41:34.065Z,12.10
2022-10-14T05:44:00.438Z,11.60
2022-10-14T05:46:30.556Z,10.90
2022-10-14T05:48:57.310Z,10.77
2022-10-14T05:51:23.837Z,10.88
2022-10-14T05:53:50.207Z,11.13
2022-10-14T05:56:16.531Z,9.38
2022-10-14T05:58:42.903Z,11.27
2022-10-14T06:01:10.215Z,11.45
2022-10-14T06:03:36.602Z,10.20
2022-10-14T06:06:03.364Z,10.02
2022-10-14T06:08:29.760Z,10.25
2022-10-14T06:10:56.165Z,10.63
2022-10-14T06:13:22.666Z,9.88
2022-10-14T06:15:49.010Z,11.18
2022-10-14T06:18:15.775Z,10.88
2022-10-14T06:20:42.177Z,10.55
2022-10-14T06:23:08.501Z,11.38
2022-10-14T06:25:36.224Z,11.13
2022-10-14T06:28:03.513Z,12.18
2022-10-14T06:30:29.865Z,11.15
2022-10-14T06:32:56.192Z,10.95
2022-10-14T06:35:22.573Z,10.40
2022-10-14T06:37:48.897Z,11.63
2022-10-14T06:40:15.436Z,11.13
2022-10-14T06:42:41.967Z,10.98
2022-10-14T06:45:10.736Z,10.68
2022-10-14T06:47:37.115Z,11.63
2022-10-14T06:50:03.995Z,9.80
2022-10-14T06:52:30.542Z,11.40
2022-10-14T06:54:56.933Z,9.82
2022-10-14T06:57:23.379Z,9.95
2022-10-14T06:59:49.790Z,9.35
2022-10-14T07:02:16.167Z,8.93
2022-10-14T07:04:42.562Z,8.15
2022-10-14T07:07:09.005Z,6.30
2022-10-14T07:09:35.489Z,5.38
2022-10-14T07:12:01.892Z,6.18
2022-10-14T07:14:28.449Z,4.65
2022-10-14T07:16:54.960Z,5.82
2022-10-14T07:19:21.353Z,4.28
2022-10-14T07:21:47.799Z,3.92
2022-10-14T07:24:14.331Z,3.00
2022-10-14T07:26:43.504Z,2.97
2022-10-14T07:29:09.899Z,2.90
2022-10-14T07:31:36.245Z,2.50
2022-10-14T07:34:02.712Z,2.22
2022-10-14T07:36:29.215Z,2.60
2022-10-14T07:38:55.645Z,2.28
2022-10-14T07:41:23.315Z,3.03
2022-10-14T07:43:54.442Z,2.50
2022-10-14T07:46:29.647Z,1.95
2022-10-14T07:48:57.975Z,2.20
2022-10-14T07:51:24.666Z,1.80
2022-10-14T07:53:54.839Z,2.10
2022-10-14T07:56:21.335Z,2.05
2022-10-14T07:58:47.920Z,2.72
2022-10-14T08:01:15.622Z,1.88
2022-10-14T08:03:46.368Z,1.63
2022-10-14T08:06:12.830Z,2.00
2022-10-14T08:08:39.722Z,2.15
2022-10-14T08:11:09.905Z,1.83
2022-10-14T08:13:37.888Z,1.33
2022-10-14T08:16:20.841Z,1.90
2022-10-14T08:18:47.381Z,1.77
2022-10-14T08:21:14.101Z,1.90
2022-10-14T08:23:40.625Z,1.45
2022-10-14T08:26:28.944Z,1.30
2022-10-14T08:28:55.453Z,1.60
2022-10-14T08:31:21.873Z,1.60
2022-10-14T08:33:48.503Z,1.77
2022-10-14T08:36:15.479Z,1.55
2022-10-14T08:38:41.976Z,1.40
2022-10-14T08:41:08.403Z,2.22
2022-10-14T08:43:40.454Z,1.40
2022-10-14T08:46:14.369Z,1.58
2022-10-14T08:48:41.071Z,1.42
2022-10-14T08:51:14.106Z,1.80
2022-10-14T08:53:43.465Z,1.98
2022-10-14T08:56:10.928Z,1.50
2022-10-14T08:58:43.062Z,1.42
2022-10-14T09:03:39.853Z,0.90
2022-10-14T09:06:07.919Z,1.90
2022-10-14T09:08:38.373Z,1.30
2022-10-14T09:11:06.375Z,1.70
2022-10-14T09:13:35.868Z,1.63
2022-10-14T09:16:06.316Z,1.48
2022-10-14T09:18:36.605Z,1.35
2022-10-14T09:21:18.427Z,2.95
2022-10-14T09:23:53.359Z,1.65
2022-10-14T09:26:20.051Z,1.38
2022-10-14T09:28:48.885Z,1.48
2022-10-14T09:31:15.380Z,1.40
2022-10-14T09:33:42.950Z,1.75
2022-10-14T09:36:12.601Z,1.30
2022-10-14T09:38:39.072Z,1.10
2022-10-14T09:41:08.690Z,1.38
2022-10-14T09:43:35.264Z,1.40
2022-10-14T09:46:11.130Z,1.25
2022-10-14T09:48:39.592Z,1.70
2022-10-14T09:51:08.467Z,1.25
2022-10-14T09:53:38.066Z,1.20
2022-10-14T09:56:06.226Z,1.08
2022-10-14T09:58:55.184Z,1.20
2022-10-14T10:01:22.862Z,1.48
2022-10-14T10:03:50.210Z,1.42
2022-10-14T10:06:19.268Z,2.72
2022-10-14T10:09:01.286Z,0.77
2022-10-14T10:11:37.431Z,2.30
2022-10-14T10:14:23.233Z,1.63
2022-10-14T10:17:09.997Z,1.10
2022-10-14T10:19:39.658Z,1.27
2022-10-14T10:22:15.026Z,0.90
2022-10-14T10:24:41.445Z,2.20
2022-10-14T10:27:21.699Z,0.90
2022-10-14T10:29:48.360Z,0.90
2022-10-14T10:32:24.482Z,1.50
2022-10-14T10:35:02.833Z,1.05
2022-10-14T10:37:31.568Z,2.22
2022-10-14T10:39:57.879Z,0.90
2022-10-14T10:42:27.083Z,1.20
2022-10-14T10:44:59.612Z,1.98
2022-10-14T10:47:32.994Z,1.38
2022-10-14T10:50:19.688Z,1.15
2022-10-14T10:52:49.504Z,1.83
2022-10-14T10:55:37.479Z,1.48
2022-10-14T10:58:23.376Z,1.10
2022-10-14T11:01:02.674Z,12.60
2022-10-14T11:03:29.077Z,1.63
2022-10-14T11:05:55.448Z,1.15
2022-10-14T11:08:59.015Z,1.17
2022-10-14T11:11:49.394Z,1.05
2022-10-14T11:14:24.819Z,1.35
2022-10-14T11:17:01.579Z,1.35
2022-10-14T11:19:40.082Z,1.10
2022-10-14T11:22:24.344Z,1.05
2022-10-14T11:25:09.453Z,1.95
2022-10-14T11:28:00.732Z,1.27
2022-10-14T11:30:33.362Z,1.30
2022-10-14T11:33:09.054Z,1.08
2022-10-14T11:35:38.451Z,0.90
2022-10-14T11:38:14.172Z,1.73
2022-10-14T11:40:59.160Z,0.93
2022-10-14T11:43:34.895Z,1.10
2022-10-14T11:46:05.022Z,1.25
2022-10-14T11:48:43.980Z,0.90
2022-10-14T11:51:25.811Z,0.88
2022-10-14T11:53:55.192Z,1.23
2022-10-14T11:56:34.073Z,1.05
2022-10-14T11:59:20.821Z,1.00
2022-10-14T12:01:48.599Z,1.52
2022-10-14T12:04:19.273Z,1.20
2022-10-14T12:06:55.901Z,0.95
2022-10-14T12:09:25.230Z,0.82
2022-10-14T12:11:51.660Z,0.82
2022-10-14T12:14:20.362Z,1.58
2022-10-14T12:16:48.244Z,1.40
2022-10-14T12:19:19.430Z,1.30
2022-10-14T12:21:49.711Z,1.13
2022-10-14T12:24:19.192Z,1.20
2022-10-14T12:26:55.554Z,1.15
2022-10-14T12:29:25.859Z,1.30
2022-10-14T12:32:04.463Z,1.00
2022-10-14T12:34:38.774Z,1.20
2022-10-14T12:37:27.246Z,0.98
2022-10-14T12:40:03.329Z,0.90
2022-10-14T12:42:30.698Z,0.77
2022-10-14T12:44:58.384Z,1.02
2022-10-14T12:47:29.196Z,0.88
2022-10-14T12:52:31.168Z,0.70
2022-10-14T12:54:59.003Z,0.88
2022-10-14T12:57:30.753Z,0.90
2022-10-14T12:59:59.280Z,0.90
2022-10-14T13:02:45.936Z,0.80
2022-10-14T13:05:31.215Z,1.05
2022-10-14T13:08:14.678Z,0.68
2022-10-14T13:10:47.957Z,0.52
2022-10-14T13:13:33.122Z,0.60
2022-10-14T13:15:59.925Z,0.82
2022-10-14T13:18:33.173Z,2.05
2022-10-14T13:20:59.569Z,0.55
2022-10-14T13:23:31.977Z,0.57
2022-10-14T13:26:21.317Z,0.73
2022-10-14T13:28:53.574Z,0.52
2022-10-14T13:31:25.951Z,0.82
2022-10-14T13:33:55.418Z,0.50
2022-10-14T13:36:24.088Z,0.88
2022-10-14T13:38:55.619Z,0.52
2022-10-14T13:41:30.753Z,0.63
2022-10-14T13:43:58.771Z,1.10
2022-10-14T13:46:45.463Z,0.98
2022-10-14T13:49:20.370Z,0.65
2022-10-14T13:51:55.589Z,0.80
2022-10-14T13:54:26.110Z,0.52
2022-10-14T13:57:13.810Z,0.80
2022-10-14T14:00:19.048Z,0.60
2022-10-14T14:02:32.246Z,0.68
2022-10-14T14:04:59.553Z,0.75
2022-10-14T14:08:08.450Z,0.68
2022-10-14T14:10:19.328Z,0.60
2022-10-14T14:12:46.099Z,0.80
2022-10-14T14:15:17.641Z,0.50
2022-10-14T14:17:43.988Z,0.90
2022-10-14T14:20:11.343Z,0.70
2022-10-14T14:22:41.651Z,1.30
2022-10-14T14:25:33.464Z,0.82
2022-10-14T14:28:02.335Z,0.90
2022-10-14T14:30:30.735Z,0.75
2022-10-14T14:32:58.914Z,0.38
2022-10-14T14:35:25.514Z,0.57
2022-10-14T14:37:56.416Z,0.80
2022-10-14T14:40:30.789Z,0.70
2022-10-14T14:43:01.950Z,1.05
2022-10-14T14:45:30.466Z,0.88
2022-10-14T14:47:58.629Z,1.10
2022-10-14T14:50:38.203Z,0.88
2022-10-14T14:53:09.900Z,0.90
2022-10-14T14:55:42.124Z,1.02
2022-10-14T14:58:18.233Z,2.17
2022-10-14T15:00:46.052Z,0.90
2022-10-14T15:03:13.050Z,1.13
2022-10-14T15:05:39.411Z,0.85
2022-10-14T15:08:05.754Z,1.10
2022-10-14T15:10:32.134Z,1.33
2022-10-14T15:12:59.599Z,1.13
2022-10-14T15:15:31.046Z,1.00
2022-10-14T15:18:17.282Z,1.00
2022-10-14T15:20:43.805Z,0.90
2022-10-14T15:23:28.616Z,1.27
2022-10-14T15:26:01.127Z,0.90
2022-10-14T15:28:28.763Z,0.95
2022-10-14T15:31:01.537Z,0.80
2022-10-14T15:33:31.274Z,0.75
2022-10-14T15:36:01.873Z,0.77
2022-10-14T15:38:29.123Z,0.80
2022-10-14T15:40:55.838Z,0.70
2022-10-14T15:43:25.909Z,1.05
2022-10-14T15:46:29.312Z,0.80
2022-10-14T15:48:57.349Z,0.85
2022-10-14T15:51:28.193Z,1.10
2022-10-14T15:53:54.615Z,1.13
2022-10-14T15:56:21.596Z,0.98
2022-10-14T15:58:48.216Z,0.95
2022-10-14T16:01:17.320Z,1.02
2022-10-14T16:03:44.581Z,1.05
2022-10-14T16:06:10.966Z,1.20
2022-10-14T16:08:38.058Z,1.40
2022-10-14T16:11:04.532Z,1.50
2022-10-14T16:13:31.013Z,4.63
2022-10-14T16:16:01.517Z,3.53
2022-10-14T16:18:27.897Z,2.95
2022-10-14T16:20:54.266Z,3.45
2022-10-14T16:23:22.496Z,6.25
2022-10-14T16:25:49.262Z,4.80
2022-10-14T16:28:18.795Z,3.67
2022-10-14T16:30:48.668Z,3.83
2022-10-14T16:33:19.194Z,3.83
2022-10-14T16:35:48.385Z,2.63
2022-10-14T16:38:14.819Z,2.13
2022-10-14T16:40:41.391Z,1.80
2022-10-14T16:43:07.731Z,1.83
2022-10-14T16:45:34.100Z,2.30
2022-10-14T16:48:00.481Z,1.75
2022-10-14T16:50:26.850Z,1.90
2022-10-14T16:53:11.931Z,1.90
2022-10-14T16:55:39.338Z,1.92
2022-10-14T16:58:05.863Z,2.10
2022-10-14T17:00:32.343Z,2.38
2022-10-14T17:03:00.323Z,2.70
2022-10-14T17:05:27.041Z,2.22
2022-10-14T17:07:53.672Z,2.53
2022-10-14T17:10:21.355Z,2.50
2022-10-14T17:12:47.789Z,1.88
2022-10-14T17:15:14.237Z,1.65
2022-10-14T17:17:40.669Z,1.90
2022-10-14T17:20:08.471Z,1.90
2022-10-14T17:22:35.072Z,2.10
2022-10-14T17:25:05.302Z,1.73
2022-10-14T17:27:31.904Z,3.40
2022-10-14T17:29:58.646Z,1.90
2022-10-14T17:32:28.220Z,1.70
2022-10-14T17:34:54.817Z,3.95
2022-10-14T17:37:21.190Z,13.98
2022-10-14T17:39:47.588Z,7.47
2022-10-14T17:42:13.972Z,7.03
2022-10-14T17:44:43.760Z,22.80
2022-10-14T17:47:10.487Z,9.03
2022-10-14T17:49:37.384Z,3.05
2022-10-14T17:52:05.013Z,2.20
2022-10-14T17:54:31.363Z,2.22
2022-10-14T17:56:58.016Z,2.00
2022-10-14T17:59:24.449Z,4.25
2022-10-14T18:02:02.029Z,1.92
2022-10-14T18:04:29.231Z,3.50
2022-10-14T18:06:55.670Z,2.80
2022-10-14T18:09:24.316Z,2.25
2022-10-14T18:14:37.948Z,1.80
2022-10-14T18:17:05.143Z,1.70
2022-10-14T18:19:31.800Z,2.30
2022-10-14T18:21:58.245Z,2.22
2022-10-14T18:24:24.688Z,2.47
2022-10-14T18:26:51.279Z,2.03
2022-10-14T18:29:17.659Z,2.40
2022-10-14T18:31:44.149Z,1.85
2022-10-14T18:34:11.234Z,1.77
2022-10-14T18:36:37.876Z,1.55
2022-10-14T18:39:06.627Z,1.50
2022-10-14T18:41:33.610Z,1.83
2022-10-14T18:44:00.032Z,1.73
2022-10-14T18:46:27.675Z,1.65
2022-10-14T18:48:54.862Z,1.67
2022-10-14T18:51:25.717Z,1.40
2022-10-14T18:54:03.090Z,1.88
2022-10-14T18:56:31.649Z,1.60
2022-10-14T18:58:59.335Z,1.70
2022-10-14T19:01:26.446Z,1.75
2022-10-14T19:03:53.173Z,2.22
2022-10-14T19:06:20.905Z,2.28
2022-10-14T19:08:47.849Z,1.77
2022-10-14T19:11:21.517Z,2.60
2022-10-14T19:13:50.127Z,1.50
2022-10-14T19:16:17.763Z,2.10
2022-10-14T19:18:44.863Z,1.95
2022-10-14T19:21:12.860Z,1.40
2022-10-14T19:23:40.778Z,1.75
2022-10-14T19:26:08.390Z,1.65
2022-10-14T19:28:34.790Z,2.25
2022-10-14T19:31:08.336Z,1.95
2022-10-14T19:33:35.437Z,1.88
2022-10-14T19:36:02.085Z,1.70
2022-10-14T19:38:28.451Z,1.55
2022-10-14T19:40:58.148Z,1.85
2022-10-14T19:43:24.495Z,2.05
2022-10-14T19:45:50.904Z,2.00
2022-10-14T19:48:17.245Z,1.88
2022-10-14T19:50:43.708Z,2.13
2022-10-14T19:53:10.195Z,1.60
2022-10-14T19:55:36.629Z,1.52
2022-10-14T19:58:03.912Z,1.80
2022-10-14T20:00:30.599Z,1.80
2022-10-14T20:02:56.970Z,2.00
2022-10-14T20:05:23.388Z,1.85
2022-10-14T20:07:49.789Z,2.38
2022-10-14T20:10:16.219Z,2.97
2022-10-14T20:12:42.575Z,2.00
2022-10-14T20:15:09.296Z,2.22
2022-10-14T20:17:35.682Z,3.40
2022-10-14T20:20:02.028Z,2.03
2022-10-14T20:22:28.382Z,2.28
2022-10-14T20:24:54.738Z,2.33
2022-10-14T20:27:21.241Z,2.25
2022-10-14T20:29:47.712Z,2.40
2022-10-14T20:32:14.050Z,2.80
2022-10-14T20:34:40.419Z,3.55
2022-10-14T20:37:06.830Z,3.40
2022-10-14T20:39:33.281Z,3.20
2022-10-14T20:41:59.673Z,2.80
2022-10-14T20:44:26.092Z,2.92
2022-10-14T20:46:55.465Z,2.95
2022-10-14T20:49:21.952Z,3.50
2022-10-14T20:51:48.388Z,2.58
2022-10-14T20:54:14.849Z,2.35
2022-10-14T20:56:41.260Z,2.63
2022-10-14T20:59:07.964Z,2.72
2022-10-14T21:01:35.663Z,2.97
2022-10-14T21:04:07.233Z,2.83
2022-10-14T21:06:34.102Z,2.80
2022-10-14T21:09:00.725Z,3.03
2022-10-14T21:11:28.017Z,3.88
2022-10-14T21:13:58.399Z,2.58
2022-10-14T21:16:33.323Z,2.38
2022-10-14T21:19:06.898Z,2.50
2022-10-14T21:21:35.994Z,3.80
2022-10-14T21:24:06.142Z,2.58
2022-10-14T21:26:32.673Z,2.22
2022-10-14T21:29:00.372Z,2.10
2022-10-14T21:31:26.780Z,2.50
2022-10-14T21:34:05.367Z,2.83
2022-10-14T21:36:32.505Z,2.85
2022-10-14T21:39:00.868Z,2.50
2022-10-14T21:41:27.843Z,2.58
2022-10-14T21:43:55.825Z,2.38
2022-10-14T21:46:22.281Z,2.85
2022-10-14T21:48:53.180Z,2.30
2022-10-14T21:51:19.514Z,2.70
2022-10-14T21:53:46.450Z,4.07
2022-10-14T21:56:14.304Z,2.58
2022-10-14T21:58:41.113Z,3.03
2022-10-14T22:01:12.840Z,3.05
2022-10-14T22:03:39.591Z,3.38
2022-10-14T22:06:14.422Z,3.40
2022-10-14T22:08:42.154Z,3.05
2022-10-14T22:11:15.235Z,3.22
2022-10-14T22:13:41.690Z,3.28
2022-10-14T22:16:08.034Z,3.85
2022-10-14T22:18:34.423Z,3.30
2022-10-14T22:21:09.861Z,3.85
2022-10-14T22:23:40.011Z,4.55
2022-10-14T22:26:07.506Z,5.00
2022-10-14T22:28:34.110Z,3.95
2022-10-14T22:31:15.161Z,3.45
2022-10-14T22:36:12.228Z,4.03
2022-10-14T22:38:39.708Z,4.35
2022-10-14T22:41:06.839Z,5.90
2022-10-14T22:43:33.892Z,4.60
2022-10-14T22:46:04.710Z,4.85
2022-10-14T22:48:31.363Z,5.07
2022-10-14T22:51:02.241Z,5.13
2022-10-14T22:53:28.836Z,4.60
2022-10-14T22:55:55.459Z,4.80
2022-10-14T22:58:21.855Z,5.30
2022-10-14T23:00:48.228Z,4.60
2022-10-14T23:03:14.590Z,4.65
2022-10-14T23:05:40.978Z,5.90
2022-10-14T23:08:11.974Z,5.43
2022-10-14T23:13:05.110Z,4.90
2022-10-14T23:15:31.590Z,5.00
2022-10-14T23:17:58.004Z,5.05
2022-10-14T23:20:24.441Z,5.55
2022-10-14T23:22:50.832Z,5.32
2022-10-14T23:25:17.268Z,6.50
2022-10-14T23:27:43.870Z,5.50
2022-10-14T23:30:10.800Z,5.72
2022-10-14T23:32:37.243Z,5.45
2022-10-14T23:35:03.650Z,5.75
2022-10-14T23:37:30.273Z,5.78
2022-10-14T23:39:56.638Z,5.50
2022-10-14T23:42:23.075Z,6.15
2022-10-14T23:44:49.506Z,4.93
2022-10-14T23:47:17.535Z,5.70
2022-10-14T23:49:43.902Z,5.55
2022-10-14T23:52:10.267Z,4.82
2022-10-14T23:54:36.758Z,5.70
2022-10-14T23:57:03.134Z,5.32
2022-10-14T23:59:30.501Z,5.35
